sensor_id;sensor_type;location;lat;lon;timestamp;P1;durP1;ratioP1;P2;durP2;ratioP2
80748;SDS011;70145;53.746;9.970;2023-07-29T00:00:25;2.23;;;2.03;;
80748;SDS011;70145;53.746;9.970;2023-07-29T00:02:51;1.80;;;1.33;;
80748;SDS011;70145;53.746;9.970;2023-07-29T00:05:16;2.17;;;1.80;;
80748;SDS011;70145;53.746;9.970;2023-07-29T00:07:42;2.30;;;1.63;;
80748;SDS011;70145;53.746;9.970;2023-07-29T00:10:07;2.40;;;1.93;;
80748;SDS011;70145;53.746;9.970;2023-07-29T00:12:33;2.13;;;1.27;;
80748;SDS011;70145;53.746;9.970;2023-07-29T00:14:58;2.23;;;1.77;;
80748;SDS011;70145;53.746;9.970;2023-07-29T00:17:23;3.38;;;1.92;;
80748;SDS011;70145;53.746;9.970;2023-07-29T00:19:49;2.15;;;1.60;;
80748;SDS011;70145;53.746;9.970;2023-07-29T00:22:14;1.77;;;1.57;;
80748;SDS011;70145;53.746;9.970;2023-07-29T00:24:39;2.77;;;1.60;;
80748;SDS011;70145;53.746;9.970;2023-07-29T00:27:05;2.58;;;1.55;;
80748;SDS011;70145;53.746;9.970;2023-07-29T00:29:30;2.22;;;2.03;;
80748;SDS011;70145;53.746;9.970;2023-07-29T00:31:55;1.80;;;1.57;;
80748;SDS011;70145;53.746;9.970;2023-07-29T00:34:21;1.63;;;1.30;;
80748;SDS011;70145;53.746;9.970;2023-07-29T00:36:46;2.50;;;1.73;;
80748;SDS011;70145;53.746;9.970;2023-07-29T00:39:11;1.83;;;1.57;;
80748;SDS011;70145;53.746;9.970;2023-07-29T00:41:37;1.77;;;1.27;;
80748;SDS011;70145;53.746;9.970;2023-07-29T00:44:02;4.38;;;2.00;;
80748;SDS011;70145;53.746;9.970;2023-07-29T00:46:28;1.38;;;1.13;;
80748;SDS011;70145;53.746;9.970;2023-07-29T00:48:56;2.65;;;1.40;;
80748;SDS011;70145;53.746;9.970;2023-07-29T00:51:22;2.42;;;1.70;;
80748;SDS011;70145;53.746;9.970;2023-07-29T00:53:47;2.30;;;1.58;;
80748;SDS011;70145;53.746;9.970;2023-07-29T00:56:12;2.00;;;1.30;;
80748;SDS011;70145;53.746;9.970;2023-07-29T00:58:38;1.70;;;1.23;;
80748;SDS011;70145;53.746;9.970;2023-07-29T01:01:03;1.60;;;1.40;;
80748;SDS011;70145;53.746;9.970;2023-07-29T01:03:29;2.10;;;1.60;;
80748;SDS011;70145;53.746;9.970;2023-07-29T01:13:53;2.13;;;1.60;;
80748;SDS011;70145;53.746;9.970;2023-07-29T01:16:40;1.83;;;1.55;;
80748;SDS011;70145;53.746;9.970;2023-07-29T01:19:08;1.88;;;1.40;;
80748;SDS011;70145;53.746;9.970;2023-07-29T01:22:01;2.53;;;1.98;;
80748;SDS011;70145;53.746;9.970;2023-07-29T01:24:27;3.72;;;2.92;;
80748;SDS011;70145;53.746;9.970;2023-07-29T01:26:53;2.80;;;1.50;;
80748;SDS011;70145;53.746;9.970;2023-07-29T01:29:18;2.40;;;1.88;;
80748;SDS011;70145;53.746;9.970;2023-07-29T01:31:43;2.10;;;1.70;;
80748;SDS011;70145;53.746;9.970;2023-07-29T01:34:13;2.22;;;1.60;;
80748;SDS011;70145;53.746;9.970;2023-07-29T01:36:48;2.28;;;1.90;;
80748;SDS011;70145;53.746;9.970;2023-07-29T01:39:16;2.55;;;1.70;;
80748;SDS011;70145;53.746;9.970;2023-07-29T01:41:42;2.42;;;1.90;;
80748;SDS011;70145;53.746;9.970;2023-07-29T01:44:09;3.42;;;2.08;;
80748;SDS011;70145;53.746;9.970;2023-07-29T01:46:35;2.28;;;1.83;;
80748;SDS011;70145;53.746;9.970;2023-07-29T01:49:01;2.10;;;1.80;;
80748;SDS011;70145;53.746;9.970;2023-07-29T01:51:27;2.00;;;1.70;;
80748;SDS011;70145;53.746;9.970;2023-07-29T01:53:52;2.17;;;1.75;;
80748;SDS011;70145;53.746;9.970;2023-07-29T01:56:18;2.75;;;2.08;;
80748;SDS011;70145;53.746;9.970;2023-07-29T01:58:43;2.10;;;1.70;;
80748;SDS011;70145;53.746;9.970;2023-07-29T02:01:08;2.37;;;2.03;;
80748;SDS011;70145;53.746;9.970;2023-07-29T02:03:33;2.60;;;2.03;;
80748;SDS011;70145;53.746;9.970;2023-07-29T02:05:59;3.77;;;1.93;;
80748;SDS011;70145;53.746;9.970;2023-07-29T02:08:24;3.80;;;2.00;;
80748;SDS011;70145;53.746;9.970;2023-07-29T02:10:49;3.93;;;2.57;;
80748;SDS011;70145;53.746;9.970;2023-07-29T02:13:15;2.73;;;2.17;;
80748;SDS011;70145;53.746;9.970;2023-07-29T02:15:40;3.78;;;2.83;;
80748;SDS011;70145;53.746;9.970;2023-07-29T02:18:05;7.20;;;3.53;;
80748;SDS011;70145;53.746;9.970;2023-07-29T02:20:32;3.30;;;2.53;;
80748;SDS011;70145;53.746;9.970;2023-07-29T02:22:57;3.25;;;2.47;;
80748;SDS011;70145;53.746;9.970;2023-07-29T02:25:23;4.93;;;2.87;;
80748;SDS011;70145;53.746;9.970;2023-07-29T02:27:48;4.10;;;2.93;;
80748;SDS011;70145;53.746;9.970;2023-07-29T02:30:13;4.32;;;3.25;;
80748;SDS011;70145;53.746;9.970;2023-07-29T02:32:39;5.55;;;3.15;;
80748;SDS011;70145;53.746;9.970;2023-07-29T02:35:04;4.70;;;3.33;;
80748;SDS011;70145;53.746;9.970;2023-07-29T02:37:30;3.75;;;3.03;;
80748;SDS011;70145;53.746;9.970;2023-07-29T02:39:55;4.40;;;2.65;;
80748;SDS011;70145;53.746;9.970;2023-07-29T02:42:21;5.00;;;3.53;;
80748;SDS011;70145;53.746;9.970;2023-07-29T02:44:46;4.65;;;2.63;;
80748;SDS011;70145;53.746;9.970;2023-07-29T02:47:11;3.28;;;2.80;;
80748;SDS011;70145;53.746;9.970;2023-07-29T02:49:37;4.70;;;3.00;;
80748;SDS011;70145;53.746;9.970;2023-07-29T02:52:02;4.40;;;3.42;;
80748;SDS011;70145;53.746;9.970;2023-07-29T02:54:27;4.20;;;3.22;;
80748;SDS011;70145;53.746;9.970;2023-07-29T02:56:53;5.15;;;3.80;;
80748;SDS011;70145;53.746;9.970;2023-07-29T02:59:18;3.03;;;2.50;;
80748;SDS011;70145;53.746;9.970;2023-07-29T03:01:43;5.82;;;4.15;;
80748;SDS011;70145;53.746;9.970;2023-07-29T03:04:10;4.80;;;3.47;;
80748;SDS011;70145;53.746;9.970;2023-07-29T03:06:38;3.92;;;3.47;;
80748;SDS011;70145;53.746;9.970;2023-07-29T03:09:03;4.35;;;3.88;;
80748;SDS011;70145;53.746;9.970;2023-07-29T03:11:29;3.92;;;3.30;;
80748;SDS011;70145;53.746;9.970;2023-07-29T03:13:56;4.55;;;3.72;;
80748;SDS011;70145;53.746;9.970;2023-07-29T03:16:21;5.15;;;4.60;;
80748;SDS011;70145;53.746;9.970;2023-07-29T03:18:47;3.85;;;3.10;;
80748;SDS011;70145;53.746;9.970;2023-07-29T03:21:13;5.43;;;4.30;;
80748;SDS011;70145;53.746;9.970;2023-07-29T03:23:39;5.70;;;3.88;;
80748;SDS011;70145;53.746;9.970;2023-07-29T03:26:04;5.85;;;3.83;;
80748;SDS011;70145;53.746;9.970;2023-07-29T03:28:35;4.45;;;3.28;;
80748;SDS011;70145;53.746;9.970;2023-07-29T03:31:02;3.90;;;3.05;;
80748;SDS011;70145;53.746;9.970;2023-07-29T03:33:27;4.70;;;4.20;;
80748;SDS011;70145;53.746;9.970;2023-07-29T03:35:53;5.15;;;3.58;;
80748;SDS011;70145;53.746;9.970;2023-07-29T03:38:18;7.32;;;5.35;;
80748;SDS011;70145;53.746;9.970;2023-07-29T03:40:44;7.13;;;4.47;;
80748;SDS011;70145;53.746;9.970;2023-07-29T03:43:09;6.45;;;5.57;;
80748;SDS011;70145;53.746;9.970;2023-07-29T03:45:34;7.10;;;5.38;;
80748;SDS011;70145;53.746;9.970;2023-07-29T03:48:00;7.68;;;6.38;;
80748;SDS011;70145;53.746;9.970;2023-07-29T03:50:26;7.22;;;6.18;;
80748;SDS011;70145;53.746;9.970;2023-07-29T03:52:52;7.97;;;7.18;;
80748;SDS011;70145;53.746;9.970;2023-07-29T03:55:17;7.80;;;6.40;;
80748;SDS011;70145;53.746;9.970;2023-07-29T03:57:43;8.93;;;7.47;;
80748;SDS011;70145;53.746;9.970;2023-07-29T04:00:08;7.70;;;6.13;;
80748;SDS011;70145;53.746;9.970;2023-07-29T04:02:36;9.38;;;7.28;;
80748;SDS011;70145;53.746;9.970;2023-07-29T04:05:02;8.73;;;7.28;;
80748;SDS011;70145;53.746;9.970;2023-07-29T04:07:29;9.45;;;6.43;;
80748;SDS011;70145;53.746;9.970;2023-07-29T04:09:54;10.73;;;7.68;;
80748;SDS011;70145;53.746;9.970;2023-07-29T04:12:20;10.70;;;7.65;;
80748;SDS011;70145;53.746;9.970;2023-07-29T04:14:46;11.57;;;7.85;;
80748;SDS011;70145;53.746;9.970;2023-07-29T04:17:12;10.95;;;7.97;;
80748;SDS011;70145;53.746;9.970;2023-07-29T04:19:39;10.63;;;8.60;;
80748;SDS011;70145;53.746;9.970;2023-07-29T04:22:06;10.98;;;7.38;;
80748;SDS011;70145;53.746;9.970;2023-07-29T04:24:32;11.02;;;8.18;;
80748;SDS011;70145;53.746;9.970;2023-07-29T04:26:57;10.48;;;7.53;;
80748;SDS011;70145;53.746;9.970;2023-07-29T04:29:23;8.73;;;7.43;;
80748;SDS011;70145;53.746;9.970;2023-07-29T04:31:49;10.85;;;7.93;;
80748;SDS011;70145;53.746;9.970;2023-07-29T04:34:15;10.38;;;7.78;;
80748;SDS011;70145;53.746;9.970;2023-07-29T04:36:40;9.27;;;6.88;;
80748;SDS011;70145;53.746;9.970;2023-07-29T04:39:06;9.93;;;7.23;;
80748;SDS011;70145;53.746;9.970;2023-07-29T04:41:31;8.20;;;6.77;;
80748;SDS011;70145;53.746;9.970;2023-07-29T04:43:56;10.65;;;8.52;;
80748;SDS011;70145;53.746;9.970;2023-07-29T04:46:22;10.40;;;7.53;;
80748;SDS011;70145;53.746;9.970;2023-07-29T04:48:47;10.25;;;8.02;;
80748;SDS011;70145;53.746;9.970;2023-07-29T04:51:12;11.70;;;8.45;;
80748;SDS011;70145;53.746;9.970;2023-07-29T04:53:38;10.93;;;8.45;;
80748;SDS011;70145;53.746;9.970;2023-07-29T04:56:03;11.80;;;8.10;;
80748;SDS011;70145;53.746;9.970;2023-07-29T04:58:29;11.00;;;9.70;;
80748;SDS011;70145;53.746;9.970;2023-07-29T05:00:55;12.48;;;8.18;;
80748;SDS011;70145;53.746;9.970;2023-07-29T05:03:20;13.18;;;9.52;;
80748;SDS011;70145;53.746;9.970;2023-07-29T05:05:46;13.35;;;10.30;;
80748;SDS011;70145;53.746;9.970;2023-07-29T05:08:11;11.07;;;8.88;;
80748;SDS011;70145;53.746;9.970;2023-07-29T05:10:37;14.10;;;9.98;;
80748;SDS011;70145;53.746;9.970;2023-07-29T05:13:02;12.77;;;9.50;;
80748;SDS011;70145;53.746;9.970;2023-07-29T05:15:27;12.10;;;9.27;;
80748;SDS011;70145;53.746;9.970;2023-07-29T05:17:53;12.15;;;9.27;;
80748;SDS011;70145;53.746;9.970;2023-07-29T05:20:18;11.97;;;8.70;;
80748;SDS011;70145;53.746;9.970;2023-07-29T05:22:43;13.20;;;8.77;;
80748;SDS011;70145;53.746;9.970;2023-07-29T05:25:08;14.63;;;9.50;;
80748;SDS011;70145;53.746;9.970;2023-07-29T05:27:34;11.90;;;8.35;;
80748;SDS011;70145;53.746;9.970;2023-07-29T05:29:59;14.15;;;9.65;;
80748;SDS011;70145;53.746;9.970;2023-07-29T05:32:25;11.77;;;9.77;;
80748;SDS011;70145;53.746;9.970;2023-07-29T05:34:50;12.27;;;8.80;;
80748;SDS011;70145;53.746;9.970;2023-07-29T05:37:15;12.20;;;9.97;;
80748;SDS011;70145;53.746;9.970;2023-07-29T05:39:41;13.80;;;8.95;;
80748;SDS011;70145;53.746;9.970;2023-07-29T05:42:06;12.97;;;8.57;;
80748;SDS011;70145;53.746;9.970;2023-07-29T05:44:31;12.70;;;9.48;;
80748;SDS011;70145;53.746;9.970;2023-07-29T05:46:57;12.35;;;9.68;;
80748;SDS011;70145;53.746;9.970;2023-07-29T05:49:22;13.07;;;9.80;;
80748;SDS011;70145;53.746;9.970;2023-07-29T05:51:48;12.75;;;8.80;;
80748;SDS011;70145;53.746;9.970;2023-07-29T05:54:13;13.17;;;8.83;;
80748;SDS011;70145;53.746;9.970;2023-07-29T05:56:38;11.80;;;8.18;;
80748;SDS011;70145;53.746;9.970;2023-07-29T05:59:04;11.63;;;8.47;;
80748;SDS011;70145;53.746;9.970;2023-07-29T06:01:29;12.27;;;8.02;;
80748;SDS011;70145;53.746;9.970;2023-07-29T06:03:54;12.95;;;10.30;;
80748;SDS011;70145;53.746;9.970;2023-07-29T06:06:20;13.13;;;8.93;;
80748;SDS011;70145;53.746;9.970;2023-07-29T06:08:45;13.20;;;9.32;;
80748;SDS011;70145;53.746;9.970;2023-07-29T06:11:10;11.53;;;8.37;;
80748;SDS011;70145;53.746;9.970;2023-07-29T06:13:35;14.47;;;10.23;;
80748;SDS011;70145;53.746;9.970;2023-07-29T06:16:01;12.23;;;8.23;;
80748;SDS011;70145;53.746;9.970;2023-07-29T06:18:26;14.63;;;10.82;;
80748;SDS011;70145;53.746;9.970;2023-07-29T06:20:51;13.47;;;9.57;;
80748;SDS011;70145;53.746;9.970;2023-07-29T06:23:17;12.93;;;10.55;;
80748;SDS011;70145;53.746;9.970;2023-07-29T06:25:42;11.97;;;9.20;;
80748;SDS011;70145;53.746;9.970;2023-07-29T06:28:08;12.55;;;8.63;;
80748;SDS011;70145;53.746;9.970;2023-07-29T06:30:34;11.30;;;9.30;;
80748;SDS011;70145;53.746;9.970;2023-07-29T06:33:00;13.27;;;9.88;;
80748;SDS011;70145;53.746;9.970;2023-07-29T06:35:25;10.02;;;8.85;;
80748;SDS011;70145;53.746;9.970;2023-07-29T06:37:50;12.03;;;9.20;;
80748;SDS011;70145;53.746;9.970;2023-07-29T06:40:16;14.05;;;10.40;;
80748;SDS011;70145;53.746;9.970;2023-07-29T06:42:41;14.35;;;9.07;;
80748;SDS011;70145;53.746;9.970;2023-07-29T06:45:07;13.02;;;9.48;;
80748;SDS011;70145;53.746;9.970;2023-07-29T06:47:33;14.80;;;11.20;;
80748;SDS011;70145;53.746;9.970;2023-07-29T06:49:58;15.63;;;11.05;;
80748;SDS011;70145;53.746;9.970;2023-07-29T06:52:23;13.98;;;9.90;;
80748;SDS011;70145;53.746;9.970;2023-07-29T06:54:49;14.15;;;10.75;;
80748;SDS011;70145;53.746;9.970;2023-07-29T06:57:14;15.95;;;11.25;;
80748;SDS011;70145;53.746;9.970;2023-07-29T06:59:40;13.98;;;10.10;;
80748;SDS011;70145;53.746;9.970;2023-07-29T07:02:06;13.03;;;9.70;;
80748;SDS011;70145;53.746;9.970;2023-07-29T07:04:31;11.80;;;9.23;;
80748;SDS011;70145;53.746;9.970;2023-07-29T07:06:57;11.23;;;8.63;;
80748;SDS011;70145;53.746;9.970;2023-07-29T07:09:22;12.23;;;9.67;;
80748;SDS011;70145;53.746;9.970;2023-07-29T07:11:47;13.77;;;10.03;;
80748;SDS011;70145;53.746;9.970;2023-07-29T07:14:13;13.07;;;8.60;;
80748;SDS011;70145;53.746;9.970;2023-07-29T07:16:38;11.27;;;9.43;;
80748;SDS011;70145;53.746;9.970;2023-07-29T07:19:04;13.52;;;10.57;;
80748;SDS011;70145;53.746;9.970;2023-07-29T07:21:30;11.88;;;8.48;;
80748;SDS011;70145;53.746;9.970;2023-07-29T07:23:55;10.77;;;8.40;;
80748;SDS011;70145;53.746;9.970;2023-07-29T07:26:20;10.07;;;8.63;;
80748;SDS011;70145;53.746;9.970;2023-07-29T07:28:45;10.90;;;6.90;;
80748;SDS011;70145;53.746;9.970;2023-07-29T07:31:11;9.67;;;6.90;;
80748;SDS011;70145;53.746;9.970;2023-07-29T07:33:36;11.82;;;7.85;;
80748;SDS011;70145;53.746;9.970;2023-07-29T07:36:02;10.63;;;8.25;;
80748;SDS011;70145;53.746;9.970;2023-07-29T07:38:27;12.52;;;9.90;;
80748;SDS011;70145;53.746;9.970;2023-07-29T07:40:53;11.75;;;9.50;;
80748;SDS011;70145;53.746;9.970;2023-07-29T07:43:21;11.48;;;8.52;;
80748;SDS011;70145;53.746;9.970;2023-07-29T07:45:47;12.68;;;8.82;;
80748;SDS011;70145;53.746;9.970;2023-07-29T07:48:12;10.90;;;8.73;;
80748;SDS011;70145;53.746;9.970;2023-07-29T07:50:38;10.38;;;8.15;;
80748;SDS011;70145;53.746;9.970;2023-07-29T07:53:04;11.45;;;7.93;;
80748;SDS011;70145;53.746;9.970;2023-07-29T07:55:29;11.10;;;7.63;;
80748;SDS011;70145;53.746;9.970;2023-07-29T07:57:54;9.90;;;7.83;;
80748;SDS011;70145;53.746;9.970;2023-07-29T08:00:20;11.27;;;8.38;;
80748;SDS011;70145;53.746;9.970;2023-07-29T08:02:46;11.55;;;8.68;;
80748;SDS011;70145;53.746;9.970;2023-07-29T08:05:11;13.97;;;9.27;;
80748;SDS011;70145;53.746;9.970;2023-07-29T08:07:36;12.20;;;9.07;;
80748;SDS011;70145;53.746;9.970;2023-07-29T08:10:02;11.20;;;9.77;;
80748;SDS011;70145;53.746;9.970;2023-07-29T08:12:27;11.90;;;9.38;;
80748;SDS011;70145;53.746;9.970;2023-07-29T08:14:53;10.93;;;9.20;;
80748;SDS011;70145;53.746;9.970;2023-07-29T08:17:18;13.10;;;9.47;;
80748;SDS011;70145;53.746;9.970;2023-07-29T08:19:43;13.37;;;9.57;;
80748;SDS011;70145;53.746;9.970;2023-07-29T08:22:09;12.25;;;10.63;;
80748;SDS011;70145;53.746;9.970;2023-07-29T08:24:34;13.05;;;10.60;;
80748;SDS011;70145;53.746;9.970;2023-07-29T08:26:59;12.40;;;9.70;;
80748;SDS011;70145;53.746;9.970;2023-07-29T08:29:24;12.10;;;10.63;;
80748;SDS011;70145;53.746;9.970;2023-07-29T08:31:50;15.68;;;12.73;;
80748;SDS011;70145;53.746;9.970;2023-07-29T08:34:16;14.95;;;11.63;;
80748;SDS011;70145;53.746;9.970;2023-07-29T08:36:42;15.13;;;9.80;;
80748;SDS011;70145;53.746;9.970;2023-07-29T08:39:07;12.60;;;8.87;;
80748;SDS011;70145;53.746;9.970;2023-07-29T08:41:36;12.45;;;9.80;;
80748;SDS011;70145;53.746;9.970;2023-07-29T08:44:12;12.68;;;10.60;;
80748;SDS011;70145;53.746;9.970;2023-07-29T08:46:51;15.23;;;9.95;;
80748;SDS011;70145;53.746;9.970;2023-07-29T08:49:18;12.80;;;10.27;;
80748;SDS011;70145;53.746;9.970;2023-07-29T08:51:45;11.85;;;10.20;;
80748;SDS011;70145;53.746;9.970;2023-07-29T08:54:12;12.27;;;10.65;;
80748;SDS011;70145;53.746;9.970;2023-07-29T08:56:40;10.73;;;8.30;;
80748;SDS011;70145;53.746;9.970;2023-07-29T08:59:10;13.13;;;11.32;;
80748;SDS011;70145;53.746;9.970;2023-07-29T09:01:37;13.82;;;10.73;;
80748;SDS011;70145;53.746;9.970;2023-07-29T09:04:03;13.63;;;10.38;;
80748;SDS011;70145;53.746;9.970;2023-07-29T09:06:29;17.17;;;14.38;;
80748;SDS011;70145;53.746;9.970;2023-07-29T09:08:55;17.92;;;13.38;;
80748;SDS011;70145;53.746;9.970;2023-07-29T09:11:21;17.00;;;13.40;;
80748;SDS011;70145;53.746;9.970;2023-07-29T09:13:47;18.42;;;12.77;;
80748;SDS011;70145;53.746;9.970;2023-07-29T09:16:13;16.38;;;12.57;;
80748;SDS011;70145;53.746;9.970;2023-07-29T09:18:38;17.88;;;12.00;;
80748;SDS011;70145;53.746;9.970;2023-07-29T09:21:04;17.63;;;13.38;;
80748;SDS011;70145;53.746;9.970;2023-07-29T09:23:38;14.85;;;11.90;;
80748;SDS011;70145;53.746;9.970;2023-07-29T09:26:05;17.27;;;12.35;;
80748;SDS011;70145;53.746;9.970;2023-07-29T09:28:34;17.67;;;10.50;;
80748;SDS011;70145;53.746;9.970;2023-07-29T09:31:00;14.48;;;11.55;;
80748;SDS011;70145;53.746;9.970;2023-07-29T09:33:27;14.68;;;10.98;;
80748;SDS011;70145;53.746;9.970;2023-07-29T09:35:52;14.05;;;10.55;;
80748;SDS011;70145;53.746;9.970;2023-07-29T09:38:18;15.57;;;11.40;;
80748;SDS011;70145;53.746;9.970;2023-07-29T09:40:50;13.25;;;8.88;;
80748;SDS011;70145;53.746;9.970;2023-07-29T09:43:20;14.98;;;10.02;;
80748;SDS011;70145;53.746;9.970;2023-07-29T09:45:51;13.73;;;9.73;;
80748;SDS011;70145;53.746;9.970;2023-07-29T09:48:17;13.23;;;9.85;;
80748;SDS011;70145;53.746;9.970;2023-07-29T09:50:47;14.32;;;10.10;;
80748;SDS011;70145;53.746;9.970;2023-07-29T09:53:12;14.88;;;10.50;;
80748;SDS011;70145;53.746;9.970;2023-07-29T09:55:38;14.13;;;11.52;;
80748;SDS011;70145;53.746;9.970;2023-07-29T09:58:04;12.63;;;10.48;;
80748;SDS011;70145;53.746;9.970;2023-07-29T10:00:33;10.63;;;8.38;;
80748;SDS011;70145;53.746;9.970;2023-07-29T10:02:59;11.68;;;8.65;;
80748;SDS011;70145;53.746;9.970;2023-07-29T10:05:26;10.15;;;7.78;;
80748;SDS011;70145;53.746;9.970;2023-07-29T10:07:52;9.38;;;7.47;;
80748;SDS011;70145;53.746;9.970;2023-07-29T10:10:19;9.05;;;6.40;;
80748;SDS011;70145;53.746;9.970;2023-07-29T10:12:45;6.80;;;5.43;;
80748;SDS011;70145;53.746;9.970;2023-07-29T10:15:11;6.82;;;6.13;;
80748;SDS011;70145;53.746;9.970;2023-07-29T10:17:37;6.13;;;5.10;;
80748;SDS011;70145;53.746;9.970;2023-07-29T10:20:04;6.82;;;5.90;;
80748;SDS011;70145;53.746;9.970;2023-07-29T10:22:38;5.63;;;4.80;;
80748;SDS011;70145;53.746;9.970;2023-07-29T10:25:09;6.97;;;6.03;;
80748;SDS011;70145;53.746;9.970;2023-07-29T10:27:49;5.75;;;4.53;;
80748;SDS011;70145;53.746;9.970;2023-07-29T10:30:18;6.22;;;4.78;;
80748;SDS011;70145;53.746;9.970;2023-07-29T10:32:44;6.63;;;5.70;;
80748;SDS011;70145;53.746;9.970;2023-07-29T10:35:13;5.13;;;4.50;;
80748;SDS011;70145;53.746;9.970;2023-07-29T10:37:40;6.15;;;4.90;;
80748;SDS011;70145;53.746;9.970;2023-07-29T10:40:07;5.57;;;4.78;;
80748;SDS011;70145;53.746;9.970;2023-07-29T10:42:34;4.43;;;4.03;;
80748;SDS011;70145;53.746;9.970;2023-07-29T10:45:00;2.63;;;2.42;;
80748;SDS011;70145;53.746;9.970;2023-07-29T10:47:42;4.07;;;3.78;;
80748;SDS011;70145;53.746;9.970;2023-07-29T10:50:14;3.07;;;2.30;;
80748;SDS011;70145;53.746;9.970;2023-07-29T10:52:42;4.13;;;3.72;;
80748;SDS011;70145;53.746;9.970;2023-07-29T10:55:22;3.40;;;3.10;;
80748;SDS011;70145;53.746;9.970;2023-07-29T10:58:04;2.70;;;2.15;;
80748;SDS011;70145;53.746;9.970;2023-07-29T11:00:30;1.60;;;1.35;;
80748;SDS011;70145;53.746;9.970;2023-07-29T11:02:59;1.88;;;1.50;;
80748;SDS011;70145;53.746;9.970;2023-07-29T11:05:26;5.03;;;2.38;;
80748;SDS011;70145;53.746;9.970;2023-07-29T11:07:52;1.85;;;1.75;;
80748;SDS011;70145;53.746;9.970;2023-07-29T11:10:17;1.53;;;1.43;;
80748;SDS011;70145;53.746;9.970;2023-07-29T11:17:38;2.55;;;1.88;;
80748;SDS011;70145;53.746;9.970;2023-07-29T11:20:05;3.13;;;2.50;;
80748;SDS011;70145;53.746;9.970;2023-07-29T11:22:34;2.53;;;2.30;;
80748;SDS011;70145;53.746;9.970;2023-07-29T11:25:00;2.97;;;2.65;;
80748;SDS011;70145;53.746;9.970;2023-07-29T11:27:25;3.10;;;2.80;;
80748;SDS011;70145;53.746;9.970;2023-07-29T11:30:01;3.08;;;2.78;;
80748;SDS011;70145;53.746;9.970;2023-07-29T11:32:31;2.25;;;1.90;;
80748;SDS011;70145;53.746;9.970;2023-07-29T11:34:59;2.88;;;1.88;;
80748;SDS011;70145;53.746;9.970;2023-07-29T11:37:29;3.33;;;2.28;;
80748;SDS011;70145;53.746;9.970;2023-07-29T11:39:54;2.83;;;2.53;;
80748;SDS011;70145;53.746;9.970;2023-07-29T11:42:19;2.40;;;2.17;;
80748;SDS011;70145;53.746;9.970;2023-07-29T11:44:45;2.72;;;2.42;;
80748;SDS011;70145;53.746;9.970;2023-07-29T11:47:11;3.25;;;2.95;;
80748;SDS011;70145;53.746;9.970;2023-07-29T11:49:38;3.33;;;3.03;;
80748;SDS011;70145;53.746;9.970;2023-07-29T11:52:06;4.20;;;2.83;;
80748;SDS011;70145;53.746;9.970;2023-07-29T11:54:35;3.60;;;3.22;;
80748;SDS011;70145;53.746;9.970;2023-07-29T11:57:03;2.95;;;2.30;;
80748;SDS011;70145;53.746;9.970;2023-07-29T11:59:32;3.00;;;2.75;;
80748;SDS011;70145;53.746;9.970;2023-07-29T12:02:00;3.88;;;3.30;;
80748;SDS011;70145;53.746;9.970;2023-07-29T12:04:26;2.85;;;2.30;;
80748;SDS011;70145;53.746;9.970;2023-07-29T12:06:52;3.20;;;2.42;;
80748;SDS011;70145;53.746;9.970;2023-07-29T12:09:17;3.10;;;2.83;;
80748;SDS011;70145;53.746;9.970;2023-07-29T12:11:43;3.47;;;3.17;;
80748;SDS011;70145;53.746;9.970;2023-07-29T12:14:09;4.10;;;3.80;;
80748;SDS011;70145;53.746;9.970;2023-07-29T12:16:41;2.90;;;2.47;;
80748;SDS011;70145;53.746;9.970;2023-07-29T12:19:08;3.55;;;2.65;;
80748;SDS011;70145;53.746;9.970;2023-07-29T12:21:33;3.33;;;2.05;;
80748;SDS011;70145;53.746;9.970;2023-07-29T12:23:59;3.33;;;1.92;;
80748;SDS011;70145;53.746;9.970;2023-07-29T12:26:28;2.20;;;2.00;;
80748;SDS011;70145;53.746;9.970;2023-07-29T12:28:54;2.83;;;2.53;;
80748;SDS011;70145;53.746;9.970;2023-07-29T12:31:19;2.10;;;1.90;;
80748;SDS011;70145;53.746;9.970;2023-07-29T12:33:44;2.33;;;1.95;;
80748;SDS011;70145;53.746;9.970;2023-07-29T12:36:10;2.30;;;1.42;;
80748;SDS011;70145;53.746;9.970;2023-07-29T12:38:35;2.22;;;2.03;;
80748;SDS011;70145;53.746;9.970;2023-07-29T12:41:01;2.00;;;1.80;;
80748;SDS011;70145;53.746;9.970;2023-07-29T12:43:26;1.60;;;1.20;;
80748;SDS011;70145;53.746;9.970;2023-07-29T12:45:52;1.30;;;1.20;;
80748;SDS011;70145;53.746;9.970;2023-07-29T12:48:17;1.80;;;1.67;;
80748;SDS011;70145;53.746;9.970;2023-07-29T12:50:43;2.08;;;1.88;;
80748;SDS011;70145;53.746;9.970;2023-07-29T12:53:08;2.17;;;1.45;;
80748;SDS011;70145;53.746;9.970;2023-07-29T12:55:37;2.45;;;2.20;;
80748;SDS011;70145;53.746;9.970;2023-07-29T12:58:03;1.73;;;1.58;;
80748;SDS011;70145;53.746;9.970;2023-07-29T13:00:29;1.92;;;1.58;;
80748;SDS011;70145;53.746;9.970;2023-07-29T13:02:55;2.08;;;1.48;;
80748;SDS011;70145;53.746;9.970;2023-07-29T13:05:20;1.90;;;1.80;;
80748;SDS011;70145;53.746;9.970;2023-07-29T13:07:46;1.40;;;1.20;;
80748;SDS011;70145;53.746;9.970;2023-07-29T13:10:11;1.60;;;1.17;;
80748;SDS011;70145;53.746;9.970;2023-07-29T13:12:38;2.47;;;2.28;;
80748;SDS011;70145;53.746;9.970;2023-07-29T13:15:04;1.45;;;1.35;;
80748;SDS011;70145;53.746;9.970;2023-07-29T13:17:29;2.15;;;1.98;;
80748;SDS011;70145;53.746;9.970;2023-07-29T13:19:55;2.55;;;2.35;;
80748;SDS011;70145;53.746;9.970;2023-07-29T13:22:20;1.73;;;1.63;;
80748;SDS011;70145;53.746;9.970;2023-07-29T13:24:46;2.35;;;1.90;;
80748;SDS011;70145;53.746;9.970;2023-07-29T13:27:11;2.53;;;2.33;;
80748;SDS011;70145;53.746;9.970;2023-07-29T13:29:37;1.65;;;1.55;;
80748;SDS011;70145;53.746;9.970;2023-07-29T13:32:02;1.98;;;1.85;;
80748;SDS011;70145;53.746;9.970;2023-07-29T13:34:28;2.15;;;1.25;;
80748;SDS011;70145;53.746;9.970;2023-07-29T13:36:53;1.88;;;1.60;;
80748;SDS011;70145;53.746;9.970;2023-07-29T13:39:18;2.03;;;1.63;;
80748;SDS011;70145;53.746;9.970;2023-07-29T13:41:44;3.95;;;2.08;;
80748;SDS011;70145;53.746;9.970;2023-07-29T13:44:09;1.70;;;1.30;;
80748;SDS011;70145;53.746;9.970;2023-07-29T13:46:34;2.27;;;1.90;;
80748;SDS011;70145;53.746;9.970;2023-07-29T13:49:00;1.67;;;1.57;;
80748;SDS011;70145;53.746;9.970;2023-07-29T13:51:25;2.47;;;1.93;;
80748;SDS011;70145;53.746;9.970;2023-07-29T13:53:50;2.03;;;1.93;;
80748;SDS011;70145;53.746;9.970;2023-07-29T13:56:15;1.92;;;1.83;;
80748;SDS011;70145;53.746;9.970;2023-07-29T13:58:41;1.90;;;1.17;;
80748;SDS011;70145;53.746;9.970;2023-07-29T14:01:06;3.47;;;2.17;;
80748;SDS011;70145;53.746;9.970;2023-07-29T14:03:31;2.00;;;1.60;;
80748;SDS011;70145;53.746;9.970;2023-07-29T14:05:57;2.00;;;1.83;;
80748;SDS011;70145;53.746;9.970;2023-07-29T14:08:22;1.63;;;1.37;;
80748;SDS011;70145;53.746;9.970;2023-07-29T14:10:48;3.10;;;2.90;;
80748;SDS011;70145;53.746;9.970;2023-07-29T14:13:16;1.80;;;1.20;;
80748;SDS011;70145;53.746;9.970;2023-07-29T14:15:42;1.97;;;1.87;;
80748;SDS011;70145;53.746;9.970;2023-07-29T14:18:07;2.20;;;2.00;;
80748;SDS011;70145;53.746;9.970;2023-07-29T14:20:33;2.55;;;1.20;;
80748;SDS011;70145;53.746;9.970;2023-07-29T14:22:58;1.92;;;1.83;;
80748;SDS011;70145;53.746;9.970;2023-07-29T14:25:24;2.08;;;1.90;;
80748;SDS011;70145;53.746;9.970;2023-07-29T14:27:49;2.28;;;2.00;;
80748;SDS011;70145;53.746;9.970;2023-07-29T14:30:15;2.03;;;1.88;;
80748;SDS011;70145;53.746;9.970;2023-07-29T14:32:40;1.80;;;1.13;;
80748;SDS011;70145;53.746;9.970;2023-07-29T14:35:06;1.48;;;1.38;;
80748;SDS011;70145;53.746;9.970;2023-07-29T14:37:32;1.92;;;1.20;;
80748;SDS011;70145;53.746;9.970;2023-07-29T14:39:58;1.85;;;1.35;;
80748;SDS011;70145;53.746;9.970;2023-07-29T14:42:24;1.92;;;1.48;;
80748;SDS011;70145;53.746;9.970;2023-07-29T14:44:50;3.22;;;2.15;;
80748;SDS011;70145;53.746;9.970;2023-07-29T14:47:15;1.70;;;1.60;;